sensor_id;sensor_type;location;lat;lon;timestamp;pressure;altitude;pressure_sealevel;temperature;humidity
71361;BME280;59166;48.908;1.870;2023-04-01T00:03:33;99041.03;;;10.08;99.27
71361;BME280;59166;48.908;1.870;2023-04-01T00:08:34;99037.59;;;10.02;99.34
71361;BME280;59166;48.908;1.870;2023-04-01T00:13:35;99033.19;;;10.06;98.93
71361;BME280;59166;48.908;1.870;2023-04-01T00:18:37;99042.91;;;10.07;99.33
71361;BME280;59166;48.908;1.870;2023-04-01T00:23:38;99045.91;;;10.06;100.00
71361;BME280;59166;48.908;1.870;2023-04-01T00:28:38;99037.06;;;10.00;100.00
71361;BME280;59166;48.908;1.870;2023-04-01T00:33:41;99033.13;;;9.93;100.00
71361;BME280;59166;48.908;1.870;2023-04-01T00:38:42;99041.97;;;9.93;100.00
71361;BME280;59166;48.908;1.870;2023-04-01T00:43:45;99047.63;;;9.97;100.00
71361;BME280;59166;48.908;1.870;2023-04-01T00:48:50;99039.63;;;9.87;100.00
71361;BME280;59166;48.908;1.870;2023-04-01T00:53:54;99042.09;;;9.83;100.00
71361;BME280;59166;48.908;1.870;2023-04-01T00:59:00;99046.72;;;9.82;100.00
71361;BME280;59166;48.908;1.870;2023-04-01T01:04:03;99041.31;;;9.82;100.00
71361;BME280;59166;48.908;1.870;2023-04-01T01:09:19;99044.22;;;9.86;100.00
71361;BME280;59166;48.908;1.870;2023-04-01T01:14:36;99056.34;;;9.89;100.00
71361;BME280;59166;48.908;1.870;2023-04-01T01:25:20;99058.25;;;9.88;100.00
71361;BME280;59166;48.908;1.870;2023-04-01T01:30:44;99057.78;;;9.81;100.00
71361;BME280;59166;48.908;1.870;2023-04-01T01:35:52;99056.56;;;9.68;100.00
71361;BME280;59166;48.908;1.870;2023-04-01T01:40:55;99063.28;;;9.71;100.00
71361;BME280;59166;48.908;1.870;2023-04-01T01:45:59;99067.81;;;9.75;100.00
71361;BME280;59166;48.908;1.870;2023-04-01T01:51:03;99073.72;;;9.77;100.00
71361;BME280;59166;48.908;1.870;2023-04-01T01:56:04;99066.44;;;9.78;100.00
71361;BME280;59166;48.908;1.870;2023-04-01T02:01:06;99069.66;;;9.80;100.00
71361;BME280;59166;48.908;1.870;2023-04-01T02:06:12;99070.69;;;9.84;100.00
71361;BME280;59166;48.908;1.870;2023-04-01T02:11:17;99066.09;;;9.84;100.00
71361;BME280;59166;48.908;1.870;2023-04-01T02:16:22;99074.44;;;9.88;100.00
71361;BME280;59166;48.908;1.870;2023-04-01T02:21:28;99075.47;;;9.92;100.00
71361;BME280;59166;48.908;1.870;2023-04-01T02:26:30;99063.00;;;9.96;100.00
71361;BME280;59166;48.908;1.870;2023-04-01T02:31:32;99078.97;;;9.93;100.00
71361;BME280;59166;48.908;1.870;2023-04-01T02:36:34;99078.66;;;9.94;100.00
71361;BME280;59166;48.908;1.870;2023-04-01T02:41:39;99087.00;;;9.98;99.86
71361;BME280;59166;48.908;1.870;2023-04-01T02:46:40;99088.63;;;9.99;99.54
71361;BME280;59166;48.908;1.870;2023-04-01T02:51:42;99097.56;;;9.94;100.00
71361;BME280;59166;48.908;1.870;2023-04-01T02:56:42;99089.88;;;9.82;100.00
71361;BME280;59166;48.908;1.870;2023-04-01T03:01:43;99096.59;;;9.80;100.00
71361;BME280;59166;48.908;1.870;2023-04-01T03:06:45;99110.97;;;9.75;100.00
71361;BME280;59166;48.908;1.870;2023-04-01T03:11:46;99106.16;;;9.72;100.00
71361;BME280;59166;48.908;1.870;2023-04-01T03:16:46;99115.00;;;9.73;100.00
71361;BME280;59166;48.908;1.870;2023-04-01T03:21:48;99127.16;;;9.75;100.00
71361;BME280;59166;48.908;1.870;2023-04-01T03:26:49;99116.59;;;9.79;100.00
71361;BME280;59166;48.908;1.870;2023-04-01T03:31:50;99130.25;;;9.88;99.81
71361;BME280;59166;48.908;1.870;2023-04-01T03:36:52;99140.47;;;9.91;98.52
71361;BME280;59166;48.908;1.870;2023-04-01T03:41:52;99139.09;;;9.93;99.24
71361;BME280;59166;48.908;1.870;2023-04-01T03:46:53;99139.63;;;9.95;98.19
71361;BME280;59166;48.908;1.870;2023-04-01T03:51:55;99151.50;;;9.94;97.79
71361;BME280;59166;48.908;1.870;2023-04-01T03:56:56;99151.75;;;9.98;97.80
71361;BME280;59166;48.908;1.870;2023-04-01T04:01:56;99153.59;;;10.02;97.77
71361;BME280;59166;48.908;1.870;2023-04-01T04:06:58;99148.22;;;10.02;96.16
71361;BME280;59166;48.908;1.870;2023-04-01T04:11:59;99156.00;;;10.04;95.82
71361;BME280;59166;48.908;1.870;2023-04-01T04:17:00;99157.63;;;10.05;97.10
71361;BME280;59166;48.908;1.870;2023-04-01T04:22:02;99160.00;;;10.06;96.14
71361;BME280;59166;48.908;1.870;2023-04-01T04:27:03;99165.13;;;10.08;96.13
71361;BME280;59166;48.908;1.870;2023-04-01T04:32:04;99169.72;;;10.07;95.25
71361;BME280;59166;48.908;1.870;2023-04-01T04:37:06;99165.72;;;10.05;95.22
71361;BME280;59166;48.908;1.870;2023-04-01T04:42:06;99159.22;;;10.06;95.72
71361;BME280;59166;48.908;1.870;2023-04-01T04:47:07;99165.41;;;10.06;94.94
71361;BME280;59166;48.908;1.870;2023-04-01T04:52:09;99175.41;;;10.06;94.80
71361;BME280;59166;48.908;1.870;2023-04-01T04:57:10;99172.72;;;10.06;93.84
71361;BME280;59166;48.908;1.870;2023-04-01T05:02:11;99180.00;;;10.05;93.46
71361;BME280;59166;48.908;1.870;2023-04-01T05:07:13;99183.53;;;10.01;94.17
71361;BME280;59166;48.908;1.870;2023-04-01T05:12:14;99193.06;;;9.93;94.89
71361;BME280;59166;48.908;1.870;2023-04-01T05:17:14;99201.44;;;9.92;95.45
71361;BME280;59166;48.908;1.870;2023-04-01T05:22:16;99192.81;;;9.90;94.25
71361;BME280;59166;48.908;1.870;2023-04-01T05:27:17;99192.03;;;9.89;94.32
71361;BME280;59166;48.908;1.870;2023-04-01T05:32:17;99204.97;;;9.87;94.27
71361;BME280;59166;48.908;1.870;2023-04-01T05:37:20;99204.72;;;9.83;92.73
71361;BME280;59166;48.908;1.870;2023-04-01T05:42:20;99214.97;;;9.87;91.71
71361;BME280;59166;48.908;1.870;2023-04-01T05:47:21;99206.28;;;9.90;92.80
71361;BME280;59166;48.908;1.870;2023-04-01T05:52:24;99207.66;;;9.92;91.71
71361;BME280;59166;48.908;1.870;2023-04-01T05:57:24;99213.78;;;9.98;90.00
71361;BME280;59166;48.908;1.870;2023-04-01T06:02:25;99215.16;;;9.95;90.64
71361;BME280;59166;48.908;1.870;2023-04-01T06:07:27;99233.81;;;9.92;91.28
71361;BME280;59166;48.908;1.870;2023-04-01T06:12:39;99239.47;;;9.90;90.97
71361;BME280;59166;48.908;1.870;2023-04-01T06:17:51;99234.88;;;9.91;91.73
71361;BME280;59166;48.908;1.870;2023-04-01T06:23:09;99236.22;;;9.93;90.35
71361;BME280;59166;48.908;1.870;2023-04-01T06:34:00;99249.19;;;9.91;90.11
71361;BME280;59166;48.908;1.870;2023-04-01T06:39:17;99257.78;;;9.98;90.18
71361;BME280;59166;48.908;1.870;2023-04-01T06:44:26;99261.84;;;9.96;90.91
71361;BME280;59166;48.908;1.870;2023-04-01T06:49:49;99254.81;;;9.95;91.13
71361;BME280;59166;48.908;1.870;2023-04-01T06:55:02;99263.97;;;9.99;90.99
71361;BME280;59166;48.908;1.870;2023-04-01T07:00:27;99251.53;;;10.03;89.07
71361;BME280;59166;48.908;1.870;2023-04-01T07:05:30;99255.94;;;10.22;88.96
71361;BME280;59166;48.908;1.870;2023-04-01T07:10:39;99263.97;;;10.32;89.20
71361;BME280;59166;48.908;1.870;2023-04-01T07:15:45;99274.44;;;10.39;89.78
71361;BME280;59166;48.908;1.870;2023-04-01T07:20:46;99279.53;;;10.41;88.33
71361;BME280;59166;48.908;1.870;2023-04-01T07:25:55;99294.31;;;10.48;89.50
71361;BME280;59166;48.908;1.870;2023-04-01T07:31:07;99299.94;;;10.52;89.04
71361;BME280;59166;48.908;1.870;2023-04-01T07:36:16;99299.84;;;10.62;88.64
71361;BME280;59166;48.908;1.870;2023-04-01T07:41:24;99303.06;;;10.64;87.71
71361;BME280;59166;48.908;1.870;2023-04-01T07:46:53;99308.94;;;10.76;87.41
71361;BME280;59166;48.908;1.870;2023-04-01T07:52:00;99303.91;;;10.93;85.50
71361;BME280;59166;48.908;1.870;2023-04-01T07:57:07;99302.69;;;11.04;85.07
71361;BME280;59166;48.908;1.870;2023-04-01T08:02:19;99308.25;;;11.13;81.82
71361;BME280;59166;48.908;1.870;2023-04-01T08:07:23;99312.69;;;11.27;80.77
71361;BME280;59166;48.908;1.870;2023-04-01T08:12:37;99314.88;;;11.25;80.77
71361;BME280;59166;48.908;1.870;2023-04-01T08:17:51;99324.00;;;11.29;81.61
71361;BME280;59166;48.908;1.870;2023-04-01T08:22:59;99324.81;;;11.30;81.42
71361;BME280;59166;48.908;1.870;2023-04-01T08:28:09;99335.50;;;11.40;80.37
71361;BME280;59166;48.908;1.870;2023-04-01T08:33:16;99345.66;;;11.29;82.71
71361;BME280;59166;48.908;1.870;2023-04-01T08:38:24;99349.25;;;11.44;82.32
71361;BME280;59166;48.908;1.870;2023-04-01T08:43:46;99359.09;;;11.58;81.37
71361;BME280;59166;48.908;1.870;2023-04-01T08:49:03;99359.97;;;11.72;79.95
71361;BME280;59166;48.908;1.870;2023-04-01T08:54:40;99358.53;;;11.80;80.50
71361;BME280;59166;48.908;1.870;2023-04-01T09:00:01;99349.25;;;11.86;81.03
71361;BME280;59166;48.908;1.870;2023-04-01T09:05:35;99358.03;;;11.78;80.73
71361;BME280;59166;48.908;1.870;2023-04-01T09:16:21;99360.50;;;11.93;77.38
71361;BME280;59166;48.908;1.870;2023-04-01T09:21:32;99340.78;;;12.11;79.88
71361;BME280;59166;48.908;1.870;2023-04-01T09:27:03;99352.03;;;12.56;76.53
71361;BME280;59166;48.908;1.870;2023-04-01T09:32:27;99347.09;;;12.90;74.47
71361;BME280;59166;48.908;1.870;2023-04-01T09:37:41;99356.84;;;13.05;71.17
71361;BME280;59166;48.908;1.870;2023-04-01T09:43:28;99354.63;;;12.93;72.30
71361;BME280;59166;48.908;1.870;2023-04-01T09:48:41;99356.16;;;12.67;71.08
71361;BME280;59166;48.908;1.870;2023-04-01T09:53:59;99362.84;;;13.02;68.52
71361;BME280;59166;48.908;1.870;2023-04-01T09:59:24;99349.09;;;12.98;67.63
71361;BME280;59166;48.908;1.870;2023-04-01T10:04:59;99362.06;;;13.28;67.26
71361;BME280;59166;48.908;1.870;2023-04-01T10:10:26;99357.94;;;13.31;67.22
71361;BME280;59166;48.908;1.870;2023-04-01T10:22:00;99370.00;;;13.38;65.58
71361;BME280;59166;48.908;1.870;2023-04-01T10:27:40;99367.13;;;13.76;62.49
71361;BME280;59166;48.908;1.870;2023-04-01T10:33:31;99367.28;;;13.93;63.79
71361;BME280;59166;48.908;1.870;2023-04-01T10:39:08;99369.78;;;14.03;62.71
71361;BME280;59166;48.908;1.870;2023-04-01T11:01:34;99372.66;;;14.42;62.22
71361;BME280;59166;48.908;1.870;2023-04-01T11:07:11;99367.41;;;13.88;64.30
71361;BME280;59166;48.908;1.870;2023-04-01T11:12:58;99359.28;;;13.61;62.33
71361;BME280;59166;48.908;1.870;2023-04-01T11:18:41;99366.78;;;13.91;65.38
71361;BME280;59166;48.908;1.870;2023-04-01T11:23:54;99353.63;;;14.42;60.07
71361;BME280;59166;48.908;1.870;2023-04-01T11:29:15;99358.72;;;14.00;61.03
71361;BME280;59166;48.908;1.870;2023-04-01T11:34:32;99371.03;;;14.19;60.91
71361;BME280;59166;48.908;1.870;2023-04-01T11:39:42;99356.59;;;14.32;61.33
71361;BME280;59166;48.908;1.870;2023-04-01T11:44:47;99372.59;;;15.01;63.59
71361;BME280;59166;48.908;1.870;2023-04-01T11:50:15;99370.03;;;15.26;59.86
71361;BME280;59166;48.908;1.870;2023-04-01T11:55:31;99367.31;;;15.35;60.95
71361;BME280;59166;48.908;1.870;2023-04-01T12:06:21;99370.69;;;14.57;61.34
71361;BME280;59166;48.908;1.870;2023-04-01T12:11:29;99371.47;;;14.79;60.12
71361;BME280;59166;48.908;1.870;2023-04-01T12:16:49;99369.34;;;15.69;57.60
71361;BME280;59166;48.908;1.870;2023-04-01T12:22:06;99366.56;;;16.25;58.00
71361;BME280;59166;48.908;1.870;2023-04-01T12:27:31;99377.97;;;16.44;58.33
71361;BME280;59166;48.908;1.870;2023-04-01T12:32:40;99362.41;;;16.54;54.60
71361;BME280;59166;48.908;1.870;2023-04-01T12:37:53;99360.59;;;16.92;56.74
71361;BME280;59166;48.908;1.870;2023-04-01T12:43:18;99366.16;;;17.04;55.17
71361;BME280;59166;48.908;1.870;2023-04-01T12:48:36;99367.22;;;16.48;54.25
71361;BME280;59166;48.908;1.870;2023-04-01T12:54:06;99370.16;;;15.78;56.01
71361;BME280;59166;48.908;1.870;2023-04-01T12:59:28;99368.41;;;15.73;56.68
71361;BME280;59166;48.908;1.870;2023-04-01T13:10:19;99367.84;;;15.06;57.32
71361;BME280;59166;48.908;1.870;2023-04-01T13:15:35;99374.97;;;15.81;60.13
71361;BME280;59166;48.908;1.870;2023-04-01T13:20:44;99368.03;;;16.14;57.59
71361;BME280;59166;48.908;1.870;2023-04-01T13:25:54;99363.22;;;16.28;58.78
71361;BME280;59166;48.908;1.870;2023-04-01T13:31:02;99367.94;;;15.88;62.48
71361;BME280;59166;48.908;1.870;2023-04-01T13:36:15;99367.22;;;15.49;63.57
71361;BME280;59166;48.908;1.870;2023-04-01T13:41:32;99370.66;;;15.32;60.40
71361;BME280;59166;48.908;1.870;2023-04-01T13:46:54;99370.13;;;15.13;61.81
71361;BME280;59166;48.908;1.870;2023-04-01T13:52:12;99375.31;;;15.31;58.39
71361;BME280;59166;48.908;1.870;2023-04-01T14:08:36;99372.38;;;15.19;58.46
71361;BME280;59166;48.908;1.870;2023-04-01T14:13:52;99393.22;;;15.63;57.17
71361;BME280;59166;48.908;1.870;2023-04-01T14:19:14;99388.53;;;16.20;57.48
71361;BME280;59166;48.908;1.870;2023-04-01T14:24:46;99397.34;;;16.09;57.12
71361;BME280;59166;48.908;1.870;2023-04-01T14:30:04;99398.63;;;16.28;53.52
71361;BME280;59166;48.908;1.870;2023-04-01T14:35:31;99407.53;;;15.86;55.82
71361;BME280;59166;48.908;1.870;2023-04-01T14:40:44;99410.84;;;15.26;59.70
71361;BME280;59166;48.908;1.870;2023-04-01T14:51:28;99421.03;;;14.54;62.48
71361;BME280;59166;48.908;1.870;2023-04-01T14:56:39;99428.69;;;14.16;63.87
71361;BME280;59166;48.908;1.870;2023-04-01T15:01:46;99431.78;;;14.23;63.41
71361;BME280;59166;48.908;1.870;2023-04-01T15:07:05;99434.78;;;14.35;64.37
71361;BME280;59166;48.908;1.870;2023-04-01T15:12:18;99441.38;;;14.07;64.05
71361;BME280;59166;48.908;1.870;2023-04-01T15:23:05;99449.63;;;13.75;65.23
71361;BME280;59166;48.908;1.870;2023-04-01T15:28:17;99462.66;;;13.46;65.64
71361;BME280;59166;48.908;1.870;2023-04-01T15:33:32;99487.28;;;13.03;77.96
71361;BME280;59166;48.908;1.870;2023-04-01T15:38:44;99496.97;;;12.72;81.85
71361;BME280;59166;48.908;1.870;2023-04-01T15:43:49;99494.44;;;12.62;80.54
71361;BME280;59166;48.908;1.870;2023-04-01T15:49:19;99503.50;;;12.71;81.94
71361;BME280;59166;48.908;1.870;2023-04-01T16:00:25;99514.72;;;12.46;79.48
71361;BME280;59166;48.908;1.870;2023-04-01T16:05:37;99528.97;;;12.09;80.96
71361;BME280;59166;48.908;1.870;2023-04-01T16:10:56;99535.34;;;11.94;85.51
71361;BME280;59166;48.908;1.870;2023-04-01T16:16:13;99546.63;;;11.77;87.42
71361;BME280;59166;48.908;1.870;2023-04-01T16:27:14;99550.16;;;11.15;93.06
71361;BME280;59166;48.908;1.870;2023-04-01T16:32:52;99546.63;;;11.20;93.42
71361;BME280;59166;48.908;1.870;2023-04-01T16:38:03;99561.19;;;11.24;94.84
71361;BME280;59166;48.908;1.870;2023-04-01T16:43:16;99572.25;;;11.22;95.13
71361;BME280;59166;48.908;1.870;2023-04-01T16:48:52;99583.09;;;11.22;93.35
71361;BME280;59166;48.908;1.870;2023-04-01T17:03:02;99590.22;;;11.08;94.60
71361;BME280;59166;48.908;1.870;2023-04-01T17:06:08;99593.47;;;11.05;95.07
71361;BME280;59166;48.908;1.870;2023-04-01T17:11:16;99596.78;;;10.97;96.12
71361;BME280;59166;48.908;1.870;2023-04-01T17:16:30;99605.41;;;10.99;98.70
71361;BME280;59166;48.908;1.870;2023-04-01T17:21:49;99615.44;;;10.94;97.69
71361;BME280;59166;48.908;1.870;2023-04-01T17:27:01;99622.75;;;10.93;98.86
71361;BME280;59166;48.908;1.870;2023-04-01T17:32:09;99627.34;;;10.93;99.03
71361;BME280;59166;48.908;1.870;2023-04-01T17:37:24;99635.72;;;10.91;99.56
71361;BME280;59166;48.908;1.870;2023-04-01T17:42:39;99641.16;;;10.86;99.95
71361;BME280;59166;48.908;1.870;2023-04-01T17:48:05;99647.38;;;10.81;99.19
71361;BME280;59166;48.908;1.870;2023-04-01T17:53:33;99655.22;;;10.78;99.32
71361;BME280;59166;48.908;1.870;2023-04-01T17:58:49;99660.66;;;10.68;98.71
71361;BME280;59166;48.908;1.870;2023-04-01T18:04:10;99666.13;;;10.53;98.78
71361;BME280;59166;48.908;1.870;2023-04-01T18:09:45;99677.47;;;10.50;99.87
71361;BME280;59166;48.908;1.870;2023-04-01T18:15:09;99682.59;;;10.51;100.00
71361;BME280;59166;48.908;1.870;2023-04-01T18:20:37;99693.69;;;10.45;99.08
71361;BME280;59166;48.908;1.870;2023-04-01T18:25:54;99710.19;;;10.43;99.58
71361;BME280;59166;48.908;1.870;2023-04-01T18:36:55;99721.50;;;10.40;98.72
71361;BME280;59166;48.908;1.870;2023-04-01T18:53:31;99754.44;;;10.27;99.87
71361;BME280;59166;48.908;1.870;2023-04-01T18:59:08;99760.13;;;10.20;99.04
71361;BME280;59166;48.908;1.870;2023-04-01T19:04:23;99774.19;;;10.22;99.88
71361;BME280;59166;48.908;1.870;2023-04-01T19:09:29;99779.84;;;10.26;100.00
71361;BME280;59166;48.908;1.870;2023-04-01T19:14:46;99792.25;;;10.27;99.65
71361;BME280;59166;48.908;1.870;2023-04-01T19:19:56;99794.41;;;10.25;100.00
71361;BME280;59166;48.908;1.870;2023-04-01T19:25:15;99801.19;;;10.22;100.00
71361;BME280;59166;48.908;1.870;2023-04-01T19:30:32;99807.66;;;10.16;100.00
71361;BME280;59166;48.908;1.870;2023-04-01T19:35:42;99821.13;;;10.11;100.00
71361;BME280;59166;48.908;1.870;2023-04-01T19:40:53;99830.31;;;10.10;100.00
71361;BME280;59166;48.908;1.870;2023-04-01T19:46:02;99833.00;;;10.10;100.00
71361;BME280;59166;48.908;1.870;2023-04-01T19:51:09;99854.59;;;10.05;100.00
71361;BME280;59166;48.908;1.870;2023-04-01T19:56:16;99860.28;;;10.09;100.00
71361;BME280;59166;48.908;1.870;2023-04-01T20:01:23;99862.69;;;10.10;100.00
71361;BME280;59166;48.908;1.870;2023-04-01T20:06:33;99874.31;;;10.06;100.00
71361;BME280;59166;48.908;1.870;2023-04-01T20:11:49;99879.13;;;10.04;100.00
71361;BME280;59166;48.908;1.870;2023-04-01T20:16:58;99886.41;;;10.03;100.00
71361;BME280;59166;48.908;1.870;2023-04-01T20:22:04;99890.75;;;10.04;100.00
71361;BME280;59166;48.908;1.870;2023-04-01T20:27:16;99904.25;;;9.99;100.00
71361;BME280;59166;48.908;1.870;2023-04-01T20:32:27;99908.53;;;9.95;100.00
71361;BME280;59166;48.908;1.870;2023-04-01T20:37:39;99923.09;;;9.94;100.00
71361;BME280;59166;48.908;1.870;2023-04-01T20:42:58;99927.41;;;9.90;100.00
71361;BME280;59166;48.908;1.870;2023-04-01T20:48:23;99934.44;;;9.91;100.00
71361;BME280;59166;48.908;1.870;2023-04-01T20:53:35;99942.53;;;9.91;100.00
71361;BME280;59166;48.908;1.870;2023-04-01T20:58:45;99946.84;;;9.92;100.00
71361;BME280;59166;48.908;1.870;2023-04-01T21:03:54;99961.94;;;9.88;100.00
71361;BME280;59166;48.908;1.870;2023-04-01T21:09:20;99965.16;;;9.85;100.00
71361;BME280;59166;48.908;1.870;2023-04-01T21:14:46;99963.81;;;9.82;100.00
71361;BME280;59166;48.908;1.870;2023-04-01T21:20:02;99968.38;;;9.82;100.00
71361;BME280;59166;48.908;1.870;2023-04-01T21:25:21;99977.81;;;9.79;100.00
71361;BME280;59166;48.908;1.870;2023-04-01T21:30:32;99971.09;;;9.82;100.00
71361;BME280;59166;48.908;1.870;2023-04-01T21:35:45;99974.84;;;9.81;100.00
71361;BME280;59166;48.908;1.870;2023-04-01T21:41:11;99975.38;;;9.78;100.00
71361;BME280;59166;48.908;1.870;2023-04-01T21:46:48;99985.59;;;9.76;100.00
71361;BME280;59166;48.908;1.870;2023-04-01T22:03:42;100002.34;;;9.78;100.00
71361;BME280;59166;48.908;1.870;2023-04-01T22:08:59;100009.88;;;9.71;100.00
71361;BME280;59166;48.908;1.870;2023-04-01T22:14:04;100011.44;;;9.62;100.00
71361;BME280;59166;48.908;1.870;2023-04-01T22:19:14;100019.78;;;9.60;100.00
71361;BME280;59166;48.908;1.870;2023-04-01T22:24:20;100028.16;;;9.59;100.00
71361;BME280;59166;48.908;1.870;2023-04-01T22:29:29;100034.09;;;9.61;100.00
71361;BME280;59166;48.908;1.870;2023-04-01T22:34:38;100034.91;;;9.61;100.00
71361;BME280;59166;48.908;1.870;2023-04-01T22:39:52;100041.66;;;9.64;100.00
71361;BME280;59166;48.908;1.870;2023-04-01T22:45:02;100028.91;;;9.54;100.00
71361;BME280;59166;48.908;1.870;2023-04-01T22:50:15;100042.09;;;9.51;100.00
71361;BME280;59166;48.908;1.870;2023-04-01T22:55:23;100048.50;;;9.40;100.00
71361;BME280;59166;48.908;1.870;2023-04-01T23:00:29;100048.41;;;9.24;100.00
71361;BME280;59166;48.908;1.870;2023-04-01T23:05:34;100053.78;;;9.24;100.00
71361;BME280;59166;48.908;1.870;2023-04-01T23:10:41;100050.00;;;9.25;100.00
71361;BME280;59166;48.908;1.870;2023-04-01T23:15:43;100050.81;;;9.26;100.00
71361;BME280;59166;48.908;1.870;2023-04-01T23:21:07;100061.88;;;9.24;100.00
71361;BME280;59166;48.908;1.870;2023-04-01T23:26:14;100060.75;;;9.20;100.00
71361;BME280;59166;48.908;1.870;2023-04-01T23:31:30;100061.78;;;9.14;100.00
71361;BME280;59166;48.908;1.870;2023-04-01T23:36:38;100068.47;;;9.12;100.00
71361;BME280;59166;48.908;1.870;2023-04-01T23:41:40;100074.91;;;9.06;100.00
71361;BME280;59166;48.908;1.870;2023-04-01T23:46:42;100076.75;;;9.00;99.28
71361;BME280;59166;48.908;1.870;2023-04-01T23:51:54;100089.91;;;8.97;99.24
71361;BME280;59166;48.908;1.870;2023-04-01T23:56:57;100089.59;;;8.93;100.00
